createdAt,value
2018-12-03T00:01:07.139Z,0
2018-12-03T00:02:17.367Z,0
2018-12-03T00:03:27.569Z,0
2018-12-03T00:04:37.890Z,0
2018-12-03T00:05:48.120Z,0
2018-12-03T00:06:58.312Z,0
2018-12-03T00:08:08.229Z,0
2018-12-03T00:09:18.420Z,0
2018-12-03T00:10:28.611Z,0
2018-12-03T00:11:38.841Z,0
2018-12-03T00:12:49.028Z,0
2018-12-03T00:13:59.213Z,0
2018-12-03T00:15:09.404Z,0
2018-12-03T00:16:19.589Z,0
2018-12-03T00:17:29.919Z,0
2018-12-03T00:18:40.104Z,0
2018-12-03T00:19:50.285Z,0
2018-12-03T00:21:00.470Z,0
2018-12-03T00:22:10.648Z,0
2018-12-03T00:23:20.931Z,0
2018-12-03T00:24:31.167Z,0
2018-12-03T00:25:41.346Z,0
2018-12-03T00:26:51.528Z,0
2018-12-03T00:28:01.709Z,0
2018-12-03T00:29:11.943Z,0
2018-12-03T00:30:22.124Z,0
2018-12-03T00:31:32.316Z,0
2018-12-03T00:32:42.510Z,0
2018-12-03T00:33:52.691Z,0
2018-12-03T00:35:02.970Z,0
2018-12-03T00:36:13.148Z,0
2018-12-03T00:37:23.368Z,0
2018-12-03T00:38:33.549Z,0
2018-12-03T00:39:43.730Z,0
2018-12-03T00:40:54.062Z,0
2018-12-03T00:42:04.251Z,0
2018-12-03T00:43:14.451Z,0
2018-12-03T00:44:24.630Z,0
2018-12-03T00:45:34.822Z,0
2018-12-03T00:46:45.163Z,0
2018-12-03T00:47:55.359Z,0
2018-12-03T00:49:05.542Z,0
2018-12-03T00:50:15.727Z,0
2018-12-03T00:51:25.646Z,0
2018-12-03T00:52:35.878Z,0
2018-12-03T00:53:46.065Z,0
2018-12-03T00:54:56.247Z,0
2018-12-03T00:56:06.425Z,0
2018-12-03T00:57:16.619Z,0
2018-12-03T00:58:26.851Z,0
2018-12-03T00:59:37.033Z,0
2018-12-03T01:00:47.214Z,0
2018-12-03T01:01:57.390Z,0
2018-12-03T01:03:07.573Z,0
2018-12-03T01:04:17.807Z,0
2018-12-03T01:05:27.996Z,0
2018-12-03T01:06:38.180Z,0
2018-12-03T01:07:48.362Z,0
2018-12-03T01:08:58.545Z,0
2018-12-03T01:10:08.778Z,0
2018-12-03T01:11:19.011Z,0
2018-12-03T01:12:29.198Z,0
2018-12-03T01:13:39.388Z,0
2018-12-03T01:14:49.595Z,0
2018-12-03T01:15:59.827Z,0
2018-12-03T01:17:10.011Z,0
2018-12-03T01:18:20.194Z,0
2018-12-03T01:19:30.378Z,0
2018-12-03T01:20:40.558Z,0
2018-12-03T01:21:50.841Z,0
2018-12-03T01:23:01.021Z,0
2018-12-03T01:24:11.203Z,0
2018-12-03T01:25:21.386Z,0
2018-12-03T01:26:31.565Z,0
2018-12-03T01:27:41.897Z,0
2018-12-03T01:28:52.086Z,0
2018-12-03T01:30:02.264Z,0
2018-12-03T01:31:12.445Z,0
2018-12-03T01:32:22.627Z,0
2018-12-03T01:33:32.971Z,0
2018-12-03T01:34:43.158Z,0
2018-12-03T01:35:53.341Z,0
2018-12-03T01:37:03.528Z,0
2018-12-03T01:38:13.772Z,0
2018-12-03T01:39:24.054Z,0
2018-12-03T01:40:34.234Z,0
2018-12-03T01:41:44.468Z,0
2018-12-03T01:42:54.652Z,0
2018-12-03T01:44:04.836Z,0
2018-12-03T01:45:15.070Z,0
2018-12-03T01:46:25.253Z,0
2018-12-03T01:47:35.435Z,0
2018-12-03T01:48:45.624Z,0
2018-12-03T01:49:55.811Z,0
2018-12-03T01:51:06.107Z,0
2018-12-03T01:52:16.294Z,0
2018-12-03T01:53:26.487Z,0
2018-12-03T01:54:36.672Z,0
2018-12-03T01:55:46.856Z,0
2018-12-03T01:56:57.190Z,0
2018-12-03T01:58:07.369Z,0
2018-12-03T01:59:17.554Z,0
2018-12-03T02:00:27.742Z,0
2018-12-03T02:01:37.931Z,0
2018-12-03T02:02:48.162Z,0
2018-12-03T02:03:58.343Z,0
2018-12-03T02:05:08.522Z,0
2018-12-03T02:06:18.709Z,0
2018-12-03T02:07:28.891Z,0
2018-12-03T02:08:39.178Z,0
2018-12-03T02:09:49.368Z,0
2018-12-03T02:10:59.548Z,0
2018-12-03T02:12:09.731Z,0
2018-12-03T02:13:19.952Z,0
2018-12-03T02:14:30.234Z,0
2018-12-03T02:15:40.415Z,0
2018-12-03T02:16:50.593Z,0
2018-12-03T02:18:00.783Z,0
2018-12-03T02:19:10.964Z,0
2018-12-03T02:20:21.144Z,0
2018-12-03T02:21:31.329Z,0
2018-12-03T02:22:41.511Z,0
2018-12-03T02:23:51.695Z,0
2018-12-03T02:25:01.877Z,0
2018-12-03T02:26:12.217Z,0
2018-12-03T02:27:22.414Z,0
2018-12-03T02:28:32.592Z,0
2018-12-03T02:29:42.776Z,0
2018-12-03T02:30:52.975Z,0
2018-12-03T02:32:03.265Z,0
2018-12-03T02:33:13.462Z,0
2018-12-03T02:34:23.653Z,0
2018-12-03T02:35:33.836Z,0
2018-12-03T02:36:44.025Z,0
2018-12-03T02:37:54.254Z,0
2018-12-03T02:39:04.476Z,0
2018-12-03T02:40:14.664Z,0
2018-12-03T02:41:24.867Z,0
2018-12-03T02:42:35.070Z,0
2018-12-03T02:43:45.407Z,0
2018-12-03T02:44:55.617Z,0
2018-12-03T02:46:05.822Z,0
2018-12-03T02:47:16.005Z,0
2018-12-03T02:48:26.212Z,0
2018-12-03T02:49:36.440Z,0
2018-12-03T02:50:46.618Z,0
2018-12-03T02:51:56.816Z,0
2018-12-03T02:53:06.998Z,0
2018-12-03T02:54:17.201Z,0
2018-12-03T02:55:27.442Z,0
2018-12-03T02:56:37.627Z,0
2018-12-03T02:57:47.816Z,0
2018-12-03T02:58:58.001Z,0
2018-12-03T03:00:08.184Z,0
2018-12-03T03:01:18.547Z,0
2018-12-03T03:02:28.728Z,0
2018-12-03T03:03:38.924Z,0
2018-12-03T03:04:49.111Z,0
2018-12-03T03:05:59.294Z,0
2018-12-03T03:07:09.538Z,0
2018-12-03T03:08:19.740Z,0
2018-12-03T03:09:29.932Z,0
2018-12-03T03:10:40.122Z,0
2018-12-03T03:11:50.305Z,0
2018-12-03T03:13:00.549Z,0
2018-12-03T03:14:10.727Z,0
2018-12-03T03:15:20.917Z,0
2018-12-03T03:16:31.131Z,0
2018-12-03T03:17:41.338Z,0
2018-12-03T03:18:51.654Z,0
2018-12-03T03:20:01.841Z,0
2018-12-03T03:21:12.026Z,0
2018-12-03T03:22:22.213Z,0
2018-12-03T03:23:32.396Z,0
2018-12-03T03:24:42.768Z,0
2018-12-03T03:25:53.011Z,0
2018-12-03T03:27:03.201Z,0
2018-12-03T03:28:13.391Z,0
2018-12-03T03:29:23.579Z,0
2018-12-03T03:30:33.835Z,0
2018-12-03T03:31:44.102Z,0
2018-12-03T03:32:54.342Z,0
2018-12-03T03:34:04.554Z,0
2018-12-03T03:35:14.772Z,0
2018-12-03T03:36:25.009Z,0
2018-12-03T03:37:34.922Z,0
2018-12-03T03:38:45.108Z,0
2018-12-03T03:39:55.301Z,0
2018-12-03T03:41:05.210Z,0
2018-12-03T03:42:15.492Z,0
2018-12-03T03:43:25.678Z,0
2018-12-03T03:44:35.873Z,0
2018-12-03T03:45:46.063Z,0
2018-12-03T03:46:56.258Z,0
2018-12-03T03:48:06.293Z,0
2018-12-03T03:49:16.481Z,0
2018-12-03T03:50:26.669Z,0
2018-12-03T03:51:36.858Z,0
2018-12-03T03:52:47.054Z,0
2018-12-03T03:53:57.291Z,0
2018-12-03T03:55:07.487Z,0
2018-12-03T03:56:17.676Z,0
2018-12-03T03:57:27.867Z,0
2018-12-03T03:58:38.051Z,0
2018-12-03T03:59:48.395Z,0
2018-12-03T04:00:58.591Z,0
2018-12-03T04:02:08.786Z,0
2018-12-03T04:03:18.718Z,0
2018-12-03T04:04:28.920Z,0
2018-12-03T04:05:39.222Z,0
2018-12-03T04:06:49.413Z,0
2018-12-03T04:07:59.599Z,0
2018-12-03T04:09:09.841Z,0
2018-12-03T04:10:20.031Z,0
2018-12-03T04:11:30.324Z,0
2018-12-03T04:12:40.521Z,0
2018-12-03T04:13:50.759Z,0
2018-12-03T04:15:00.946Z,0
2018-12-03T04:16:11.146Z,0
2018-12-03T04:17:21.489Z,0
2018-12-03T04:18:31.675Z,0
2018-12-03T04:19:41.860Z,0
2018-12-03T04:20:52.054Z,0
2018-12-03T04:22:02.245Z,0
2018-12-03T04:23:12.624Z,0
2018-12-03T04:24:22.811Z,0
2018-12-03T04:25:33.003Z,0
2018-12-03T04:26:43.186Z,0
2018-12-03T04:27:53.373Z,0
2018-12-03T04:29:03.610Z,0
2018-12-03T04:30:13.799Z,0
2018-12-03T04:31:23.997Z,0
2018-12-03T04:32:34.185Z,0
2018-12-03T04:33:44.382Z,0
2018-12-03T04:34:54.667Z,0
2018-12-03T04:36:04.854Z,0
2018-12-03T04:37:15.072Z,0
2018-12-03T04:38:25.275Z,0
2018-12-03T04:39:35.471Z,0
2018-12-03T04:40:45.700Z,0
2018-12-03T04:41:55.897Z,0
2018-12-03T04:43:06.079Z,0
2018-12-03T04:44:16.268Z,0
2018-12-03T04:45:26.454Z,0
2018-12-03T04:46:36.742Z,0
2018-12-03T04:47:46.940Z,0
2018-12-03T04:48:56.879Z,0
2018-12-03T04:50:08.374Z,0
2018-12-03T04:51:18.577Z,0
2018-12-03T04:52:28.873Z,0
2018-12-03T04:53:39.072Z,0
2018-12-03T04:54:49.266Z,0
2018-12-03T04:55:59.452Z,0
2018-12-03T04:57:09.640Z,0
2018-12-03T04:58:19.974Z,0
2018-12-03T04:59:30.156Z,0
2018-12-03T05:00:40.360Z,0
2018-12-03T05:01:50.549Z,0
2018-12-03T05:03:00.760Z,0
2018-12-03T05:04:11.097Z,0
2018-12-03T05:05:21.276Z,0
2018-12-03T05:06:31.516Z,0
2018-12-03T05:07:41.709Z,0
2018-12-03T05:08:51.902Z,0
2018-12-03T05:10:02.234Z,0
2018-12-03T05:11:12.414Z,0
2018-12-03T05:12:22.596Z,0
2018-12-03T05:13:32.780Z,0
2018-12-03T05:14:42.972Z,0
2018-12-03T05:15:53.310Z,0
2018-12-03T05:17:03.505Z,0
2018-12-03T05:18:13.692Z,0
2018-12-03T05:19:23.945Z,0
2018-12-03T05:20:34.131Z,0
2018-12-03T05:21:44.201Z,0
2018-12-03T05:22:54.394Z,0
2018-12-03T05:24:09.291Z,0
2018-12-03T05:25:24.363Z,0
2018-12-03T05:26:34.552Z,0
2018-12-03T05:27:44.929Z,0
2018-12-03T05:28:55.112Z,0
2018-12-03T05:30:05.291Z,0
2018-12-03T05:31:15.476Z,0
2018-12-03T05:32:25.668Z,0
2018-12-03T05:33:35.904Z,0
2018-12-03T05:34:46.104Z,0
2018-12-03T05:35:56.298Z,0
2018-12-03T05:37:06.482Z,0
2018-12-03T05:38:16.434Z,0
2018-12-03T05:39:26.661Z,0
2018-12-03T05:40:36.847Z,0
2018-12-03T05:41:47.026Z,0
2018-12-03T05:42:57.206Z,0
2018-12-03T05:44:07.383Z,0
2018-12-03T05:45:17.627Z,0
2018-12-03T05:46:27.805Z,0
2018-12-03T05:47:38.037Z,0
2018-12-03T05:48:48.226Z,0
2018-12-03T05:49:58.415Z,0
2018-12-03T05:51:08.651Z,0
2018-12-03T05:52:18.831Z,0
2018-12-03T05:53:29.012Z,0
2018-12-03T05:54:39.209Z,0
2018-12-03T05:55:49.402Z,0
2018-12-03T05:56:59.684Z,0
2018-12-03T05:58:09.925Z,0
2018-12-03T05:59:20.111Z,0
2018-12-03T06:00:30.314Z,0
2018-12-03T06:01:40.494Z,0
2018-12-03T06:02:50.736Z,0
2018-12-03T06:04:00.921Z,0
2018-12-03T06:05:11.104Z,0
2018-12-03T06:06:21.298Z,0
2018-12-03T06:07:31.484Z,0
2018-12-03T06:08:41.726Z,0
2018-12-03T06:09:51.918Z,0
2018-12-03T06:11:02.104Z,0
2018-12-03T06:12:12.289Z,0
2018-12-03T06:13:22.483Z,0
2018-12-03T06:14:32.783Z,0
2018-12-03T06:15:43.011Z,0
2018-12-03T06:16:53.198Z,0
2018-12-03T06:18:03.399Z,0
2018-12-03T06:19:13.591Z,0
2018-12-03T06:20:23.839Z,0
2018-12-03T06:21:33.761Z,0
2018-12-03T06:22:43.940Z,0
2018-12-03T06:23:54.123Z,0
2018-12-03T06:25:04.321Z,0
2018-12-03T06:26:14.556Z,0
2018-12-03T06:27:24.740Z,0
2018-12-03T06:28:34.919Z,0
2018-12-03T06:29:45.101Z,0
2018-12-03T06:30:55.291Z,0
2018-12-03T06:32:05.627Z,0
2018-12-03T06:33:15.805Z,0
2018-12-03T06:34:26.479Z,0
2018-12-03T06:35:36.669Z,0
2018-12-03T06:36:46.855Z,0
2018-12-03T06:37:57.189Z,0
2018-12-03T06:39:07.374Z,0
2018-12-03T06:40:17.574Z,0
2018-12-03T06:41:27.756Z,0
2018-12-03T06:42:37.940Z,0
2018-12-03T06:43:48.175Z,0
2018-12-03T06:44:58.358Z,0
2018-12-03T06:46:08.535Z,0
2018-12-03T06:47:18.774Z,0
2018-12-03T06:48:28.953Z,0
2018-12-03T06:49:40.317Z,0
2018-12-03T06:50:50.587Z,0
2018-12-03T06:52:00.502Z,0
2018-12-03T06:53:10.684Z,0
2018-12-03T06:54:20.871Z,0
2018-12-03T06:55:31.119Z,0
2018-12-03T06:56:41.308Z,0
2018-12-03T06:57:51.495Z,0
2018-12-03T06:59:01.677Z,0
2018-12-03T07:00:11.870Z,0
2018-12-03T07:01:22.209Z,0
2018-12-03T07:02:32.556Z,0
2018-12-03T07:03:42.759Z,0
2018-12-03T07:04:52.985Z,0
2018-12-03T07:06:03.173Z,0
2018-12-03T07:07:13.504Z,0
2018-12-03T07:08:23.694Z,0
2018-12-03T07:09:33.883Z,0
2018-12-03T07:10:44.077Z,0
2018-12-03T07:11:54.255Z,0
2018-12-03T07:13:04.498Z,0
2018-12-03T07:14:14.685Z,0
2018-12-03T07:15:24.874Z,0
2018-12-03T07:16:35.074Z,4
2018-12-03T07:17:45.266Z,4
2018-12-03T07:18:55.375Z,0
2018-12-03T07:20:05.571Z,0
2018-12-03T07:21:15.768Z,4
2018-12-03T07:22:25.970Z,4
2018-12-03T07:23:36.171Z,0
2018-12-03T07:24:46.425Z,4
2018-12-03T07:25:56.615Z,4
2018-12-03T07:27:06.798Z,4
2018-12-03T07:28:16.984Z,4
2018-12-03T07:29:27.183Z,8
2018-12-03T07:30:37.427Z,8
2018-12-03T07:31:47.610Z,8
2018-12-03T07:32:57.807Z,8
2018-12-03T07:34:10.715Z,8
2018-12-03T07:35:20.895Z,8
2018-12-03T07:36:31.227Z,12
2018-12-03T07:37:41.406Z,12
2018-12-03T07:38:51.594Z,12
2018-12-03T07:40:01.782Z,12
2018-12-03T07:41:11.968Z,16
2018-12-03T07:42:22.297Z,16
2018-12-03T07:43:32.484Z,20
2018-12-03T07:44:42.672Z,20
2018-12-03T07:45:52.853Z,24
2018-12-03T07:47:03.032Z,28
2018-12-03T07:48:13.315Z,28
2018-12-03T07:49:23.498Z,32
2018-12-03T07:50:33.698Z,32
2018-12-03T07:51:43.878Z,36
2018-12-03T07:52:54.066Z,40
2018-12-03T07:54:04.405Z,44
2018-12-03T07:55:14.587Z,52
2018-12-03T07:56:24.776Z,60
2018-12-03T07:57:34.964Z,64
2018-12-03T07:58:45.150Z,68
2018-12-03T07:59:55.484Z,72
2018-12-03T08:01:05.669Z,72
2018-12-03T08:02:15.853Z,76
2018-12-03T08:03:26.037Z,80
2018-12-03T08:04:36.226Z,88
2018-12-03T08:05:47.364Z,92
2018-12-03T08:06:57.665Z,100
2018-12-03T08:08:07.870Z,100
2018-12-03T08:09:18.052Z,100
2018-12-03T08:10:28.238Z,108
2018-12-03T08:11:38.469Z,112
2018-12-03T08:12:48.662Z,116
2018-12-03T08:13:58.848Z,132
2018-12-03T08:15:09.031Z,148
2018-12-03T08:16:19.213Z,156
2018-12-03T08:17:29.558Z,168
2018-12-03T08:18:39.740Z,184
2018-12-03T08:19:49.921Z,192
2018-12-03T08:21:04.363Z,204
2018-12-03T08:22:14.543Z,212
2018-12-03T08:23:24.609Z,212
2018-12-03T08:24:34.799Z,232
2018-12-03T08:25:44.989Z,252
2018-12-03T08:26:54.898Z,264
2018-12-03T08:28:05.089Z,268
2018-12-03T08:29:15.164Z,280
2018-12-03T08:30:25.350Z,280
2018-12-03T08:31:35.589Z,288
2018-12-03T08:32:45.775Z,280
2018-12-03T08:33:55.965Z,284
2018-12-03T08:35:06.197Z,284
2018-12-03T08:36:16.384Z,284
2018-12-03T08:37:26.307Z,300
2018-12-03T08:38:36.488Z,292
2018-12-03T08:39:47.149Z,296
2018-12-03T08:40:57.490Z,308
2018-12-03T08:42:07.676Z,348
2018-12-03T08:43:17.861Z,408
2018-12-03T08:44:28.042Z,484
2018-12-03T08:45:38.229Z,508
2018-12-03T08:46:48.559Z,560
2018-12-03T08:47:58.743Z,536
2018-12-03T08:49:08.925Z,524
2018-12-03T08:50:19.107Z,524
2018-12-03T08:51:29.293Z,492
2018-12-03T08:52:39.534Z,500
2018-12-03T08:53:49.717Z,508
2018-12-03T08:55:01.187Z,492
2018-12-03T08:56:11.371Z,480
2018-12-03T08:57:21.550Z,488
2018-12-03T08:58:31.619Z,500
2018-12-03T08:59:41.797Z,504
2018-12-03T09:00:51.761Z,456
2018-12-03T09:02:01.946Z,444
2018-12-03T09:03:12.127Z,424
2018-12-03T09:04:22.462Z,432
2018-12-03T09:05:32.372Z,424
2018-12-03T09:06:42.561Z,428
2018-12-03T09:07:52.759Z,408
2018-12-03T09:09:02.944Z,408
2018-12-03T09:10:13.278Z,424
2018-12-03T09:11:23.462Z,428
2018-12-03T09:12:33.645Z,404
2018-12-03T09:13:43.832Z,376
2018-12-03T09:14:54.020Z,396
2018-12-03T09:16:04.254Z,408
2018-12-03T09:17:14.175Z,412
2018-12-03T09:18:24.363Z,412
2018-12-03T09:19:34.553Z,400
2018-12-03T09:20:44.782Z,412
2018-12-03T09:21:55.114Z,444
2018-12-03T09:23:05.305Z,468
2018-12-03T09:24:15.494Z,464
2018-12-03T09:25:25.692Z,472
2018-12-03T09:26:35.873Z,516
2018-12-03T09:27:46.118Z,576
2018-12-03T09:28:56.343Z,648
2018-12-03T09:30:06.529Z,720
2018-12-03T09:31:16.720Z,724
2018-12-03T09:32:26.904Z,716
2018-12-03T09:33:37.144Z,736
2018-12-03T09:34:47.327Z,684
2018-12-03T09:35:57.515Z,636
2018-12-03T09:37:07.712Z,604
2018-12-03T09:38:17.893Z,576
2018-12-03T09:39:28.179Z,556
2018-12-03T09:40:38.365Z,532
2018-12-03T09:41:48.547Z,528
2018-12-03T09:42:58.754Z,540
2018-12-03T09:44:08.940Z,552
2018-12-03T09:45:19.276Z,560
2018-12-03T09:46:29.463Z,644
2018-12-03T09:47:39.655Z,668
2018-12-03T09:48:49.852Z,764
2018-12-03T09:50:00.034Z,804
2018-12-03T09:51:10.391Z,780
2018-12-03T09:52:20.570Z,784
2018-12-03T09:53:30.752Z,776
2018-12-03T09:54:40.944Z,816
2018-12-03T09:55:51.127Z,840
2018-12-03T09:57:01.401Z,832
2018-12-03T09:58:12.806Z,816
2018-12-03T09:59:22.992Z,812
2018-12-03T10:00:33.181Z,816
2018-12-03T10:01:43.369Z,840
2018-12-03T10:02:53.702Z,880
2018-12-03T10:04:03.896Z,888
2018-12-03T10:05:14.075Z,952
2018-12-03T10:06:24.257Z,944
2018-12-03T10:07:34.449Z,904
2018-12-03T10:08:44.681Z,924
2018-12-03T10:09:54.894Z,960
2018-12-03T10:11:05.082Z,960
2018-12-03T10:12:20.647Z,948
2018-12-03T10:13:30.833Z,908
2018-12-03T10:14:41.070Z,844
2018-12-03T10:15:51.249Z,808
2018-12-03T10:17:01.436Z,896
2018-12-03T10:18:11.622Z,1004
2018-12-03T10:19:21.808Z,972
2018-12-03T10:20:32.138Z,980
2018-12-03T10:21:42.331Z,1016
2018-12-03T10:22:52.524Z,976
2018-12-03T10:24:02.710Z,972
2018-12-03T10:25:12.890Z,956
2018-12-03T10:26:23.130Z,944
2018-12-03T10:27:33.315Z,908
2018-12-03T10:28:43.500Z,880
2018-12-03T10:29:53.689Z,820
2018-12-03T10:31:03.923Z,788
2018-12-03T10:32:14.204Z,796
2018-12-03T10:33:24.389Z,808
2018-12-03T10:34:34.574Z,832
2018-12-03T10:35:44.764Z,808
2018-12-03T10:36:54.943Z,836
2018-12-03T10:38:05.231Z,876
2018-12-03T10:39:15.429Z,912
2018-12-03T10:40:25.612Z,980
2018-12-03T10:41:35.800Z,1012
2018-12-03T10:42:45.985Z,968
2018-12-03T10:43:57.358Z,944
2018-12-03T10:45:07.549Z,948
2018-12-03T10:46:17.463Z,908
2018-12-03T10:47:27.644Z,888
2018-12-03T10:48:37.825Z,888
2018-12-03T10:49:48.015Z,860
2018-12-03T10:50:58.201Z,800
2018-12-03T10:52:08.407Z,768
2018-12-03T10:53:18.608Z,780
2018-12-03T10:54:28.792Z,780
2018-12-03T10:55:39.073Z,740
2018-12-03T10:56:49.254Z,724
2018-12-03T10:57:59.436Z,740
2018-12-03T10:59:09.634Z,784
2018-12-03T11:00:19.825Z,852
2018-12-03T11:01:30.831Z,880
2018-12-03T11:02:41.070Z,880
2018-12-03T11:03:51.258Z,848
2018-12-03T11:05:01.468Z,824
2018-12-03T11:06:11.658Z,792
2018-12-03T11:07:21.845Z,744
2018-12-03T11:08:32.029Z,696
2018-12-03T11:09:42.223Z,640
2018-12-03T11:10:52.413Z,628
2018-12-03T11:12:02.598Z,648
2018-12-03T11:13:12.835Z,656
2018-12-03T11:14:23.020Z,656
2018-12-03T11:15:33.202Z,636
2018-12-03T11:16:43.387Z,600
2018-12-03T11:17:53.573Z,588
2018-12-03T11:19:03.764Z,576
2018-12-03T11:20:14.003Z,596
2018-12-03T11:21:24.338Z,668
2018-12-03T11:22:34.543Z,772
2018-12-03T11:23:44.736Z,816
2018-12-03T11:24:55.019Z,808
2018-12-03T11:26:05.198Z,844
2018-12-03T11:27:15.387Z,912
2018-12-03T11:28:25.568Z,1004
2018-12-03T11:29:35.759Z,1196
2018-12-03T11:30:46.091Z,1480
2018-12-03T11:31:56.277Z,1740
2018-12-03T11:33:06.474Z,1812
2018-12-03T11:34:16.662Z,1892
2018-12-03T11:35:26.848Z,1892
2018-12-03T11:36:37.133Z,1916
2018-12-03T11:37:47.316Z,1872
2018-12-03T11:38:57.501Z,1644
2018-12-03T11:40:07.693Z,1604
2018-12-03T11:41:17.890Z,1668
2018-12-03T11:42:28.077Z,1676
2018-12-03T11:43:38.262Z,1580
2018-12-03T11:44:48.452Z,1464
2018-12-03T11:45:58.641Z,1392
2018-12-03T11:47:08.831Z,1404
2018-12-03T11:48:19.118Z,1504
2018-12-03T11:49:29.364Z,1556
2018-12-03T11:50:39.552Z,1572
2018-12-03T11:51:49.746Z,1692
2018-12-03T11:52:59.934Z,1860
2018-12-03T11:54:10.224Z,1896
2018-12-03T11:55:20.420Z,1900
2018-12-03T11:56:30.611Z,1772
2018-12-03T11:57:40.797Z,1644
2018-12-03T11:58:50.985Z,1528
2018-12-03T12:00:01.177Z,1392
2018-12-03T12:01:11.363Z,1196
2018-12-03T12:02:21.548Z,1044
2018-12-03T12:03:31.733Z,936
2018-12-03T12:04:41.924Z,912
2018-12-03T12:05:52.268Z,868
2018-12-03T12:07:02.467Z,756
2018-12-03T12:08:12.648Z,676
2018-12-03T12:09:28.403Z,608
2018-12-03T12:10:38.587Z,568
2018-12-03T12:11:48.912Z,564
2018-12-03T12:12:59.098Z,564
2018-12-03T12:14:09.284Z,512
2018-12-03T12:15:19.477Z,456
2018-12-03T12:16:29.659Z,436
2018-12-03T12:17:39.842Z,464
2018-12-03T12:18:50.051Z,476
2018-12-03T12:20:00.239Z,456
2018-12-03T12:21:10.434Z,416
2018-12-03T12:22:20.635Z,364
2018-12-03T12:23:30.929Z,344
2018-12-03T12:24:41.401Z,348
2018-12-03T12:25:51.583Z,324
2018-12-03T12:27:01.496Z,312
2018-12-03T12:28:11.678Z,312
2018-12-03T12:29:21.969Z,308
2018-12-03T12:30:32.159Z,300
2018-12-03T12:31:42.354Z,284
2018-12-03T12:32:52.564Z,276
2018-12-03T12:34:02.741Z,256
2018-12-03T12:35:12.936Z,236
2018-12-03T12:36:23.121Z,228
2018-12-03T12:37:33.324Z,224
2018-12-03T12:38:43.517Z,228
2018-12-03T12:39:53.704Z,224
2018-12-03T12:41:03.894Z,224
2018-12-03T12:42:14.080Z,208
2018-12-03T12:43:24.261Z,208
2018-12-03T12:44:34.445Z,216
2018-12-03T12:45:44.627Z,224
2018-12-03T12:46:54.913Z,232
2018-12-03T12:48:05.093Z,232
2018-12-03T12:49:15.271Z,224
2018-12-03T12:50:25.188Z,224
2018-12-03T12:51:35.372Z,224
2018-12-03T12:52:45.599Z,224
2018-12-03T12:53:55.785Z,236
2018-12-03T12:55:06.023Z,240
2018-12-03T12:56:16.205Z,244
2018-12-03T12:57:26.391Z,248
2018-12-03T12:58:36.734Z,248
2018-12-03T12:59:46.917Z,244
2018-12-03T13:00:57.098Z,240
2018-12-03T13:02:07.286Z,248
2018-12-03T13:03:17.468Z,252
2018-12-03T13:04:27.806Z,256
2018-12-03T13:05:37.992Z,248
2018-12-03T13:06:48.180Z,244
2018-12-03T13:07:58.425Z,248
2018-12-03T13:09:08.607Z,244
2018-12-03T13:10:18.794Z,240
2018-12-03T13:11:28.978Z,232
2018-12-03T13:12:39.162Z,228
2018-12-03T13:13:49.354Z,216
2018-12-03T13:14:59.538Z,216
2018-12-03T13:16:09.865Z,216
2018-12-03T13:17:20.053Z,216
2018-12-03T13:18:30.246Z,216
2018-12-03T13:19:40.426Z,208
2018-12-03T13:20:50.612Z,200
2018-12-03T13:22:00.631Z,192
2018-12-03T13:23:10.813Z,176
2018-12-03T13:24:20.462Z,164
2018-12-03T13:25:30.641Z,164
2018-12-03T13:26:40.555Z,148
2018-12-03T13:27:50.791Z,148
2018-12-03T13:29:00.971Z,140
2018-12-03T13:30:11.183Z,128
2018-12-03T13:31:21.367Z,120
2018-12-03T13:32:31.545Z,120
2018-12-03T13:33:41.729Z,116
2018-12-03T13:34:51.912Z,116
2018-12-03T13:36:02.099Z,108
2018-12-03T13:37:12.280Z,100
2018-12-03T13:38:22.460Z,96
2018-12-03T13:39:32.706Z,96
2018-12-03T13:40:42.889Z,92
2018-12-03T13:41:53.077Z,88
2018-12-03T13:43:03.259Z,84
2018-12-03T13:44:13.443Z,80
2018-12-03T13:45:23.735Z,80
2018-12-03T13:46:33.963Z,80
2018-12-03T13:47:44.147Z,88
2018-12-03T13:48:54.379Z,80
2018-12-03T13:50:04.563Z,80
2018-12-03T13:51:14.853Z,72
2018-12-03T13:52:25.038Z,72
2018-12-03T13:53:35.244Z,68
2018-12-03T13:54:45.428Z,64
2018-12-03T13:55:56.697Z,64
2018-12-03T13:57:06.941Z,56
2018-12-03T13:58:17.132Z,56
2018-12-03T13:59:27.324Z,52
2018-12-03T14:00:37.510Z,48
2018-12-03T14:01:47.970Z,48
2018-12-03T14:02:58.297Z,44
2018-12-03T14:04:08.485Z,44
2018-12-03T14:05:18.672Z,44
2018-12-03T14:06:28.601Z,44
2018-12-03T14:07:38.795Z,40
2018-12-03T14:08:48.984Z,36
2018-12-03T14:09:59.172Z,32
2018-12-03T14:11:10.425Z,32
2018-12-03T14:12:20.610Z,28
2018-12-03T14:13:30.800Z,28
2018-12-03T14:14:40.783Z,28
2018-12-03T14:15:50.969Z,24
2018-12-03T14:17:01.154Z,24
2018-12-03T14:18:11.349Z,20
2018-12-03T14:19:21.537Z,20
2018-12-03T14:20:31.718Z,20
2018-12-03T14:21:41.963Z,16
2018-12-03T14:22:52.242Z,16
2018-12-03T14:24:02.430Z,12
2018-12-03T14:25:12.618Z,16
2018-12-03T14:26:22.853Z,12
2018-12-03T14:27:33.035Z,12
2018-12-03T14:28:43.510Z,12
2018-12-03T14:29:53.791Z,8
2018-12-03T14:31:03.970Z,8
2018-12-03T14:32:14.043Z,8
2018-12-03T14:33:24.227Z,4
2018-12-03T14:34:34.578Z,8
2018-12-03T14:35:44.771Z,4
2018-12-03T14:36:54.956Z,8
2018-12-03T14:38:05.295Z,4
2018-12-03T14:39:15.477Z,4
2018-12-03T14:40:25.396Z,4
2018-12-03T14:41:35.577Z,4
2018-12-03T14:42:45.770Z,4
2018-12-03T14:43:56.100Z,0
2018-12-03T14:45:06.282Z,0
2018-12-03T14:46:16.468Z,0
2018-12-03T14:47:26.652Z,4
2018-12-03T14:48:36.832Z,4
2018-12-03T14:49:47.073Z,4
2018-12-03T14:50:57.253Z,0
2018-12-03T14:52:07.434Z,0
2018-12-03T14:53:18.461Z,0
2018-12-03T14:54:28.649Z,0
2018-12-03T14:55:38.882Z,0
2018-12-03T14:56:49.063Z,0
2018-12-03T14:57:59.273Z,0
2018-12-03T14:59:09.453Z,0
2018-12-03T15:00:19.643Z,0
2018-12-03T15:01:29.941Z,0
2018-12-03T15:02:40.131Z,0
2018-12-03T15:03:50.310Z,0
2018-12-03T15:05:00.492Z,0
2018-12-03T15:06:10.677Z,0
2018-12-03T15:07:20.742Z,0
2018-12-03T15:08:30.925Z,0
2018-12-03T15:09:41.113Z,0
2018-12-03T15:10:51.308Z,0
2018-12-03T15:12:01.487Z,0
2018-12-03T15:13:11.723Z,0
2018-12-03T15:14:21.906Z,0
2018-12-03T15:15:32.095Z,0
2018-12-03T15:16:42.288Z,0
2018-12-03T15:17:52.469Z,0
2018-12-03T15:19:02.750Z,0
2018-12-03T15:20:12.940Z,0
2018-12-03T15:21:22.860Z,0
2018-12-03T15:22:33.041Z,0
2018-12-03T15:23:43.223Z,0
2018-12-03T15:24:54.895Z,0
2018-12-03T15:26:05.075Z,0
2018-12-03T15:27:15.256Z,0
2018-12-03T15:28:25.445Z,0
2018-12-03T15:29:35.636Z,0
2018-12-03T15:30:45.877Z,0
2018-12-03T15:31:56.055Z,0
2018-12-03T15:33:06.236Z,0
2018-12-03T15:34:16.425Z,0
2018-12-03T15:35:26.665Z,0
2018-12-03T15:36:36.999Z,0
2018-12-03T15:37:47.194Z,0
2018-12-03T15:38:57.380Z,0
2018-12-03T15:40:07.318Z,0
2018-12-03T15:41:17.521Z,0
2018-12-03T15:42:28.183Z,0
2018-12-03T15:43:38.376Z,0
2018-12-03T15:44:48.561Z,0
2018-12-03T15:45:58.747Z,0
2018-12-03T15:47:08.937Z,0
2018-12-03T15:48:19.174Z,0
2018-12-03T15:49:29.354Z,0
2018-12-03T15:50:39.541Z,0
2018-12-03T15:51:49.734Z,0
2018-12-03T15:52:59.925Z,0
2018-12-03T15:54:10.254Z,0
2018-12-03T15:55:21.287Z,0
2018-12-03T15:56:31.472Z,0
2018-12-03T15:57:41.661Z,0
2018-12-03T15:58:51.841Z,0
2018-12-03T16:00:02.124Z,0
2018-12-03T16:01:16.921Z,0
2018-12-03T16:02:27.207Z,0
2018-12-03T16:03:37.394Z,0
2018-12-03T16:04:47.573Z,0
2018-12-03T16:05:57.914Z,0
2018-12-03T16:07:08.098Z,0
2018-12-03T16:08:18.286Z,0
2018-12-03T16:09:28.469Z,0
2018-12-03T16:10:38.653Z,0
2018-12-03T16:11:48.881Z,0
2018-12-03T16:12:59.068Z,0
2018-12-03T16:14:09.254Z,0
2018-12-03T16:15:19.437Z,0
2018-12-03T16:16:29.621Z,0
2018-12-03T16:17:39.859Z,0
2018-12-03T16:18:50.053Z,0
2018-12-03T16:20:00.235Z,0
2018-12-03T16:21:10.476Z,0
2018-12-03T16:22:20.662Z,0
2018-12-03T16:23:31.013Z,0
2018-12-03T16:24:41.252Z,0
2018-12-03T16:25:51.175Z,0
2018-12-03T16:27:01.353Z,0
2018-12-03T16:28:11.540Z,0
2018-12-03T16:29:22.033Z,0
2018-12-03T16:30:32.214Z,0
2018-12-03T16:31:42.396Z,0
2018-12-03T16:32:52.582Z,0
2018-12-03T16:34:02.768Z,0
2018-12-03T16:35:13.052Z,0
2018-12-03T16:36:23.239Z,0
2018-12-03T16:37:33.429Z,0
2018-12-03T16:38:43.610Z,0
2018-12-03T16:39:53.789Z,0
2018-12-03T16:41:03.861Z,0
2018-12-03T16:42:14.077Z,0
2018-12-03T16:43:24.256Z,0
2018-12-03T16:44:34.520Z,0
2018-12-03T16:45:44.704Z,0
2018-12-03T16:46:55.035Z,0
2018-12-03T16:48:05.231Z,0
2018-12-03T16:49:15.417Z,0
2018-12-03T16:50:26.741Z,0